Time;durP1;ratioP1;P1;durP2;ratioP2;P2;SDS_P1;SDS_P2;PMS_P1;PMS_P2;Temp;Humidity;BMP_temperature;BMP_pressure;BME280_temperature;BME280_humidity;BME280_pressure;Samples;Min_cycle;Max_cycle;Signal;HPM_P1;HPM_P2
2021/09/26 00:01:31;;;;;;;6.72;3.80;;;18.90;99.90;;;;;;5070731;28;20309;-61
2021/09/26 00:03:58;;;;;;;5.57;4.20;;;18.90;99.90;;;;;;5070316;28;20759;-60
2021/09/26 00:06:25;;;;;;;4.95;4.00;;;18.90;99.90;;;;;;5070734;28;20307;-60
2021/09/26 00:08:51;;;;;;;6.65;4.35;;;19.00;99.90;;;;;;5070501;28;20209;-63
2021/09/26 00:11:19;;;;;;;4.53;4.10;;;19.00;99.90;;;;;;5070335;28;20337;-60
2021/09/26 00:13:46;;;;;;;6.43;4.28;;;19.10;99.90;;;;;;5069744;28;20718;-60
2021/09/26 00:16:13;;;;;;;4.20;3.70;;;19.10;99.90;;;;;;5070481;28;20208;-60
2021/09/26 00:18:40;;;;;;;6.82;4.68;;;19.20;99.90;;;;;;5070369;28;20205;-61
2021/09/26 00:21:07;;;;;;;6.13;4.32;;;19.10;99.90;;;;;;5070257;28;20213;-61
2021/09/26 00:23:34;;;;;;;4.85;3.92;;;19.20;99.90;;;;;;5070079;28;20228;-60
2021/09/26 00:26:04;;;;;;;4.82;3.67;;;19.20;99.90;;;;;;5071013;28;20217;-60
2021/09/26 00:28:35;;;;;;;6.15;4.40;;;19.20;99.90;;;;;;5071444;28;20672;-60
2021/09/26 00:31:02;;;;;;;10.73;4.20;;;19.20;99.90;;;;;;5073700;28;20668;-60
2021/09/26 00:33:29;;;;;;;9.32;4.18;;;19.30;99.90;;;;;;5073337;28;20225;-61
2021/09/26 00:35:55;;;;;;;8.18;4.38;;;19.20;99.90;;;;;;5073984;28;20209;-60
2021/09/26 00:38:22;;;;;;;7.07;4.85;;;19.00;99.90;;;;;;5073428;28;20209;-61
2021/09/26 00:40:51;;;;;;;6.88;5.18;;;18.80;99.90;;;;;;5073564;28;20212;-60
2021/09/26 00:43:19;;;;;;;7.20;4.95;;;18.70;99.90;;;;;;5073364;28;20232;-61
2021/09/26 00:45:47;;;;;;;7.78;5.32;;;18.80;99.90;;;;;;5073412;28;20216;-60
2021/09/26 00:48:14;;;;;;;7.78;5.15;;;18.80;99.90;;;;;;5073405;28;20595;-61
2021/09/26 00:50:42;;;;;;;6.97;5.82;;;18.80;99.90;;;;;;5073376;28;20212;-61
2021/09/26 00:53:08;;;;;;;8.10;5.72;;;18.70;99.90;;;;;;5073170;28;20229;-61
2021/09/26 00:55:36;;;;;;;5.85;5.20;;;18.50;99.90;;;;;;5073545;28;20216;-60
2021/09/26 00:58:03;;;;;;;6.80;5.10;;;18.50;99.90;;;;;;5073301;28;20208;-61
2021/09/26 01:00:30;;;;;;;8.15;5.82;;;18.50;99.90;;;;;;5073437;28;20216;-60
2021/09/26 01:02:58;;;;;;;9.13;5.78;;;18.50;99.90;;;;;;5073229;28;20232;-60
2021/09/26 01:05:27;;;;;;;5.88;5.28;;;18.40;99.90;;;;;;5072957;28;20205;-60
2021/09/26 01:08:04;;;;;;;6.65;5.28;;;18.40;99.90;;;;;;5072955;28;20239;-60
2021/09/26 01:10:40;;;;;;;7.75;6.00;;;18.30;99.90;;;;;;5073394;28;20204;-60
2021/09/26 01:13:16;;;;;;;5.97;5.38;;;18.20;99.90;;;;;;5073061;28;20319;-61
2021/09/26 01:16:02;;;;;;;6.55;5.35;;;18.10;99.90;;;;;;5072892;28;20201;-63
2021/09/26 01:18:39;;;;;;;6.15;5.40;;;18.00;99.90;;;;;;5072699;28;20209;-62
2021/09/26 01:21:17;;;;;;;8.18;5.60;;;18.00;99.90;;;;;;5073102;28;20223;-60
2021/09/26 01:24:28;;;;;;;7.97;5.88;;;18.00;99.90;;;;;;5072810;28;20264;-61
2021/09/26 01:27:16;;;;;;;6.13;5.05;;;18.00;99.90;;;;;;5072707;28;20246;-62
2021/09/26 01:30:14;;;;;;;6.70;5.60;;;18.00;99.90;;;;;;5072653;28;20244;-62
2021/09/26 01:32:45;;;;;;;5.97;4.70;;;18.10;99.90;;;;;;5072435;28;20236;-61
2021/09/26 01:35:15;;;;;;;7.03;5.22;;;18.20;99.90;;;;;;5072055;28;20229;-62
2021/09/26 01:37:45;;;;;;;9.05;5.40;;;18.20;99.90;;;;;;5072498;28;20201;-62
2021/09/26 01:40:21;;;;;;;5.40;4.90;;;18.20;99.90;;;;;;5072269;28;20209;-62
2021/09/26 01:42:51;;;;;;;6.68;5.22;;;18.20;99.90;;;;;;5072195;28;20225;-61
2021/09/26 01:45:23;;;;;;;8.25;4.57;;;18.20;99.90;;;;;;5072062;28;20700;-61
2021/09/26 01:47:57;;;;;;;6.28;4.45;;;18.30;99.90;;;;;;5072548;28;20197;-60
2021/09/26 01:50:24;;;;;;;5.38;4.55;;;18.20;99.90;;;;;;5072239;28;20216;-62
2021/09/26 01:52:53;;;;;;;4.97;4.47;;;18.20;99.90;;;;;;5071937;28;20591;-61
2021/09/26 01:55:24;;;;;;;4.63;4.23;;;18.20;99.90;;;;;;5071969;28;20225;-61
2021/09/26 01:57:53;;;;;;;6.13;4.13;;;18.20;99.90;;;;;;5071871;28;20251;-62
2021/09/26 02:00:21;;;;;;;8.45;4.60;;;18.10;99.90;;;;;;5072120;28;20204;-61
2021/09/26 02:02:50;;;;;;;4.55;4.10;;;18.00;99.90;;;;;;5072015;28;20225;-61
2021/09/26 02:05:18;;;;;;;4.85;4.13;;;17.90;99.90;;;;;;5072096;28;20240;-60
2021/09/26 02:07:46;;;;;;;5.23;4.33;;;17.80;99.90;;;;;;5071866;28;20296;-61
2021/09/26 02:10:14;;;;;;;5.57;3.95;;;17.70;99.90;;;;;;5071888;28;20205;-61
2021/09/26 02:12:41;;;;;;;6.10;4.25;;;17.60;99.90;;;;;;5071553;28;20243;-60
2021/09/26 02:15:15;;;;;;;6.05;4.15;;;17.50;99.90;;;;;;5072137;28;20228;-61
2021/09/26 02:17:46;;;;;;;5.07;4.43;;;17.50;99.90;;;;;;5071927;28;20205;-61
2021/09/26 02:20:15;;;;;;;4.70;4.30;;;17.40;99.90;;;;;;5072035;28;20270;-60
2021/09/26 02:22:42;;;;;;;6.28;4.38;;;17.40;99.90;;;;;;5071754;28;20290;-59
2021/09/26 02:25:10;;;;;;;4.30;3.90;;;17.50;99.90;;;;;;5071468;28;20204;-59
2021/09/26 02:27:38;;;;;;;5.63;4.32;;;17.50;99.90;;;;;;5071756;28;20822;-59
2021/09/26 02:30:07;;;;;;;5.87;4.17;;;17.50;99.90;;;;;;5071589;28;20212;-59
2021/09/26 02:32:35;;;;;;;5.77;4.37;;;17.40;99.90;;;;;;5071802;28;20229;-63
2021/09/26 02:35:04;;;;;;;7.87;4.33;;;17.40;99.90;;;;;;5071282;28;20232;-60
2021/09/26 02:37:31;;;;;;;6.07;4.47;;;17.30;99.90;;;;;;5071386;28;20212;-60
2021/09/26 02:39:59;;;;;;;5.40;4.37;;;17.20;99.90;;;;;;5071060;28;20209;-64
2021/09/26 02:42:34;;;;;;;5.43;4.40;;;17.10;99.90;;;;;;5071505;28;20225;-60
2021/09/26 02:45:06;;;;;;;4.63;4.20;;;17.00;99.90;;;;;;5071145;28;20204;-61
2021/09/26 02:47:39;;;;;;;5.93;4.60;;;17.00;99.90;;;;;;5071168;28;20212;-62
2021/09/26 02:50:08;;;;;;;7.03;4.80;;;17.00;99.90;;;;;;5070673;28;20209;-60
2021/09/26 02:52:35;;;;;;;5.23;4.73;;;17.00;99.90;;;;;;5070875;28;20232;-61
2021/09/26 02:55:03;;;;;;;6.00;4.50;;;17.00;99.90;;;;;;5071100;28;20232;-60
2021/09/26 02:57:30;;;;;;;5.10;4.60;;;17.00;99.90;;;;;;5071119;28;20205;-62
2021/09/26 02:59:57;;;;;;;4.97;4.00;;;17.10;99.90;;;;;;5070978;28;20278;-60
2021/09/26 03:02:29;;;;;;;5.83;4.50;;;17.00;99.90;;;;;;5070825;28;20634;-62
2021/09/26 03:04:56;;;;;;;5.20;4.57;;;17.10;99.90;;;;;;5070765;28;20205;-60
2021/09/26 03:07:24;;;;;;;6.13;4.50;;;17.10;99.90;;;;;;5071015;28;20205;-60
2021/09/26 03:09:51;;;;;;;4.80;4.30;;;17.10;99.90;;;;;;5070644;28;20211;-59
2021/09/26 03:12:20;;;;;;;5.57;4.30;;;17.10;99.90;;;;;;5070703;28;20278;-61
2021/09/26 03:14:47;;;;;;;5.83;4.60;;;17.10;99.90;;;;;;5070401;28;20220;-63
2021/09/26 03:17:14;;;;;;;6.17;4.40;;;17.00;99.90;;;;;;5070596;28;20231;-62
2021/09/26 03:19:41;;;;;;;8.77;4.77;;;17.20;99.90;;;;;;5070676;28;20254;-60
2021/09/26 03:22:08;;;;;;;7.53;4.65;;;17.20;99.90;;;;;;5070765;28;20229;-59
2021/09/26 03:24:37;;;;;;;6.20;5.00;;;17.10;99.90;;;;;;5070516;28;20201;-61
2021/09/26 03:27:09;;;;;;;8.63;4.93;;;17.10;99.90;;;;;;5070458;28;20205;-60
2021/09/26 03:29:36;;;;;;;5.97;4.43;;;17.10;99.90;;;;;;5070892;28;20208;-60
2021/09/26 03:32:03;;;;;;;6.63;4.40;;;17.10;99.90;;;;;;5071035;28;20225;-59
2021/09/26 03:34:30;;;;;;;5.70;4.63;;;17.10;99.90;;;;;;5071099;28;20232;-60
2021/09/26 03:36:57;;;;;;;6.60;4.43;;;17.10;99.90;;;;;;5071062;28;20665;-61
2021/09/26 03:39:23;;;;;;;5.03;4.40;;;17.10;99.90;;;;;;5071192;28;20201;-62
2021/09/26 03:41:51;;;;;;;5.27;4.20;;;17.10;99.90;;;;;;5071096;28;20205;-61
2021/09/26 03:44:18;;;;;;;4.80;4.30;;;17.10;99.90;;;;;;5070428;28;20681;-60
2021/09/26 03:46:45;;;;;;;7.90;4.47;;;17.10;99.90;;;;;;5070992;28;20234;-62
2021/09/26 03:49:12;;;;;;;5.97;4.70;;;17.10;99.90;;;;;;5070679;28;20212;-63
2021/09/26 03:51:39;;;;;;;5.23;4.20;;;17.00;99.90;;;;;;5070646;28;20204;-61
2021/09/26 03:54:06;;;;;;;9.77;4.53;;;17.00;99.90;;;;;;5071253;28;20221;-61
2021/09/26 03:56:32;;;;;;;5.20;4.70;;;16.90;99.90;;;;;;5070980;28;20208;-60
2021/09/26 03:59:00;;;;;;;7.97;4.70;;;16.90;99.90;;;;;;5070601;28;20664;-60
2021/09/26 04:01:27;;;;;;;5.50;4.87;;;16.90;99.90;;;;;;5070719;28;20547;-59
2021/09/26 04:03:54;;;;;;;8.73;4.73;;;17.00;99.90;;;;;;5074518;28;20228;-60
2021/09/26 04:06:20;;;;;;;6.67;4.27;;;17.10;99.90;;;;;;5074336;28;20205;-60
2021/09/26 04:08:47;;;;;;;6.90;4.60;;;17.10;99.90;;;;;;5074522;28;20389;-61
2021/09/26 04:11:14;;;;;;;5.67;4.60;;;17.20;99.90;;;;;;5074027;28;20201;-61
2021/09/26 04:13:40;;;;;;;5.30;4.40;;;17.20;99.90;;;;;;5082930;22;20229;-66
2021/09/26 04:16:08;;;;;;;5.20;4.50;;;17.30;99.90;;;;;;5054411;28;20730;-66
2021/09/26 04:18:35;;;;;;;6.00;4.30;;;17.30;99.90;;;;;;5054299;28;20209;-65
2021/09/26 04:21:02;;;;;;;6.17;4.20;;;17.40;99.90;;;;;;5054065;28;20210;-66
2021/09/26 04:23:28;;;;;;;6.23;4.67;;;17.30;99.90;;;;;;5054124;28;20233;-66
2021/09/26 04:25:55;;;;;;;7.87;4.27;;;17.30;99.90;;;;;;5053628;28;20632;-67
2021/09/26 04:28:22;;;;;;;6.77;4.47;;;17.30;99.90;;;;;;5053929;28;20212;-65
2021/09/26 04:30:50;;;;;;;8.97;4.33;;;17.40;99.90;;;;;;5053843;28;20627;-68
2021/09/26 04:33:18;;;;;;;8.53;5.00;;;17.40;99.90;;;;;;5053763;28;20230;-67
2021/09/26 04:35:45;;;;;;;7.57;4.77;;;17.30;99.90;;;;;;5053418;28;20225;-67
2021/09/26 04:38:12;;;;;;;10.57;4.97;;;17.40;99.90;;;;;;5053370;28;20213;-68
2021/09/26 04:40:41;;;;;;;6.40;4.53;;;17.30;99.90;;;;;;5053854;28;20213;-68
2021/09/26 04:43:08;;;;;;;8.73;4.63;;;17.30;99.90;;;;;;5053395;28;20230;-66
2021/09/26 04:45:34;;;;;;;5.90;4.87;;;17.30;99.90;;;;;;5053349;28;20616;-67
2021/09/26 04:48:01;;;;;;;5.87;4.50;;;17.20;99.90;;;;;;5053469;28;20213;-67
2021/09/26 04:50:29;;;;;;;5.77;5.00;;;17.20;99.90;;;;;;5053329;28;20206;-66
2021/09/26 04:52:56;;;;;;;8.37;5.00;;;17.10;99.90;;;;;;5053071;28;20232;-66
2021/09/26 04:55:24;;;;;;;5.63;4.87;;;17.00;99.90;;;;;;5053086;28;20232;-67
2021/09/26 04:57:52;;;;;;;8.73;4.60;;;17.00;99.90;;;;;;5053045;28;20218;-66
2021/09/26 05:00:19;;;;;;;5.60;4.70;;;16.90;99.90;;;;;;5053192;28;20233;-66
2021/09/26 05:02:46;;;;;;;5.13;4.60;;;16.80;99.90;;;;;;5053111;28;20585;-68
2021/09/26 05:05:12;;;;;;;8.67;5.00;;;16.80;99.90;;;;;;5052968;28;20228;-65
2021/09/26 05:07:42;;;;;;;9.17;4.77;;;16.70;99.90;;;;;;5053152;28;20213;-68
2021/09/26 05:10:10;;;;;;;7.47;4.47;;;16.70;99.90;;;;;;5053188;28;20214;-67
2021/09/26 05:12:37;;;;;;;6.17;4.87;;;16.70;99.90;;;;;;5053175;28;20242;-66
2021/09/26 05:15:04;;;;;;;7.40;5.43;;;16.70;99.90;;;;;;5051957;28;20620;-68
2021/09/26 05:17:32;;;;;;;6.17;4.97;;;16.70;99.90;;;;;;5052785;28;20689;-67
2021/09/26 05:19:58;;;;;;;6.43;5.07;;;16.60;99.90;;;;;;5052769;28;20229;-67
2021/09/26 05:22:25;;;;;;;7.13;4.80;;;16.60;99.90;;;;;;5052708;28;20233;-67
2021/09/26 05:24:54;;;;;;;5.90;5.30;;;16.60;99.90;;;;;;5052595;28;20206;-67
2021/09/26 05:27:22;;;;;;;8.50;5.40;;;16.60;99.90;;;;;;5052871;28;20649;-68
2021/09/26 05:29:48;;;;;;;6.93;6.23;;;16.50;99.90;;;;;;5052452;28;20220;-67
2021/09/26 05:32:15;;;;;;;5.53;4.83;;;16.50;99.90;;;;;;5052498;28;20280;-66
2021/09/26 05:34:42;;;;;;;6.33;4.80;;;16.40;99.90;;;;;;5052692;28;20267;-66
2021/09/26 05:37:09;;;;;;;5.67;5.13;;;16.40;99.90;;;;;;5052547;28;20205;-67
2021/09/26 05:39:35;;;;;;;7.97;5.50;;;16.40;99.90;;;;;;5052107;28;20562;-67
2021/09/26 05:42:06;;;;;;;10.83;5.73;;;16.40;99.90;;;;;;5052165;28;20205;-66
2021/09/26 05:44:34;;;;;;;5.67;4.87;;;16.40;99.90;;;;;;5052010;28;20205;-68
2021/09/26 05:47:01;;;;;;;6.97;5.20;;;16.30;99.90;;;;;;5052270;28;20217;-67
2021/09/26 05:49:28;;;;;;;9.10;5.93;;;16.30;99.90;;;;;;5052224;28;20209;-66
2021/09/26 05:51:54;;;;;;;6.43;5.17;;;16.30;99.90;;;;;;5052295;28;20206;-68
2021/09/26 05:54:22;;;;;;;11.40;5.67;;;16.20;99.90;;;;;;5051896;28;20217;-67
2021/09/26 05:56:48;;;;;;;6.17;5.40;;;16.30;99.90;;;;;;5051989;28;20209;-67
2021/09/26 05:59:17;;;;;;;6.97;5.33;;;16.40;99.90;;;;;;5052300;28;20209;-67
2021/09/26 06:01:43;;;;;;;7.37;6.10;;;16.40;99.90;;;;;;5051732;28;20208;-66
2021/09/26 06:04:10;;;;;;;9.80;6.80;;;16.50;99.90;;;;;;5051821;28;20229;-66
2021/09/26 06:06:37;;;;;;;10.33;7.77;;;16.60;99.90;;;;;;5052104;28;20228;-67
2021/09/26 06:09:03;;;;;;;9.57;7.90;;;16.60;99.90;;;;;;5051740;28;20673;-67
2021/09/26 06:11:30;;;;;;;11.93;8.50;;;16.70;99.90;;;;;;5051639;28;20259;-67
2021/09/26 06:13:57;;;;;;;10.70;8.53;;;16.70;99.90;;;;;;5051335;28;20229;-68
2021/09/26 06:16:25;;;;;;;10.23;7.57;;;16.90;99.90;;;;;;5052153;28;20229;-65
2021/09/26 06:18:52;;;;;;;11.10;7.93;;;17.10;99.90;;;;;;5051923;28;20206;-66
2021/09/26 06:21:18;;;;;;;11.03;7.47;;;17.20;99.90;;;;;;5052276;28;20262;-66
2021/09/26 06:23:45;;;;;;;9.93;7.10;;;17.60;99.90;;;;;;5051669;28;20230;-67
2021/09/26 06:26:14;;;;;;;7.70;5.75;;;18.20;99.90;;;;;;5050685;28;20202;-65
2021/09/26 06:28:40;;;;;;;11.55;5.82;;;18.90;99.90;;;;;;5051441;28;20202;-65
2021/09/26 06:31:07;;;;;;;15.25;9.70;;;19.70;99.90;;;;;;5051585;28;20561;-69
2021/09/26 06:33:35;;;;;;;8.38;4.93;;;20.40;99.90;;;;;;5051681;28;20225;-68
2021/09/26 06:36:03;;;;;;;8.85;5.78;;;21.20;99.90;;;;;;5051545;28;20233;-68
2021/09/26 06:38:29;;;;;;;5.03;4.47;;;21.90;99.90;;;;;;5051381;28;20208;-67
2021/09/26 06:40:56;;;;;;;6.65;4.30;;;22.60;99.90;;;;;;5051246;28;20206;-67
2021/09/26 06:43:23;;;;;;;7.10;4.05;;;23.20;99.90;;;;;;5051142;28;20232;-63
2021/09/26 06:45:50;;;;;;;5.95;5.05;;;23.80;99.90;;;;;;5051316;28;20611;-68
2021/09/26 06:48:17;;;;;;;11.63;8.00;;;24.20;99.90;;;;;;5051132;28;20240;-68
2021/09/26 06:50:45;;;;;;;9.68;6.55;;;24.60;99.90;;;;;;5051242;28;20209;-67
2021/09/26 06:53:12;;;;;;;9.85;7.40;;;24.90;99.90;;;;;;5051270;28;20229;-68
2021/09/26 06:55:38;;;;;;;7.53;6.45;;;25.30;99.90;;;;;;5050689;28;20225;-68
2021/09/26 06:58:05;;;;;;;7.07;5.50;;;25.90;99.90;;;;;;5050610;28;20601;-67
2021/09/26 07:00:32;;;;;;;8.90;5.30;;;26.30;99.90;;;;;;5051322;28;20282;-67
2021/09/26 07:02:58;;;;;;;9.02;6.68;;;26.80;99.90;;;;;;5050865;28;20233;-70
2021/09/26 07:05:25;;;;;;;6.80;5.65;;;27.30;99.90;;;;;;5050745;28;20209;-67
2021/09/26 07:07:53;;;;;;;6.72;4.85;;;27.80;99.90;;;;;;5050699;28;20240;-67
2021/09/26 07:10:20;;;;;;;7.30;4.85;;;28.20;99.90;;;;;;5050945;28;20251;-67
2021/09/26 07:12:47;;;;;;;7.20;4.32;;;28.60;99.90;;;;;;5050450;28;20261;-67
2021/09/26 07:15:14;;;;;;;6.70;4.63;;;28.90;99.90;;;;;;5050573;28;20679;-67
2021/09/26 07:17:41;;;;;;;6.70;4.30;;;29.30;99.90;;;;;;5050948;28;20205;-67
2021/09/26 07:20:08;;;;;;;5.38;3.80;;;29.60;99.90;;;;;;5050408;28;20610;-67
2021/09/26 07:22:35;;;;;;;6.28;3.80;;;29.80;99.90;;;;;;5050530;28;20239;-67
2021/09/26 07:25:04;;;;;;;5.82;3.60;;;29.90;99.90;;;;;;5050289;28;20618;-67
2021/09/26 07:27:31;;;;;;;14.95;11.93;;;30.00;99.90;;;;;;5050878;28;20214;-66
2021/09/26 07:29:57;;;;;;;7.97;5.93;;;30.20;99.90;;;;;;5050564;28;20689;-66
2021/09/26 07:32:24;;;;;;;5.78;3.70;;;30.20;99.90;;;;;;5050490;28;20225;-67
2021/09/26 07:34:51;;;;;;;6.95;3.45;;;30.00;99.90;;;;;;5050324;28;20213;-67
2021/09/26 07:37:18;;;;;;;8.20;4.80;;;29.80;99.90;;;;;;5052150;28;20205;-66
2021/09/26 07:39:45;;;;;;;7.43;4.25;;;29.70;99.90;;;;;;5054356;28;20296;-65
2021/09/26 07:42:13;;;;;;;5.30;3.65;;;29.50;99.90;;;;;;5054815;28;20229;-65
2021/09/26 07:44:40;;;;;;;5.78;4.10;;;29.00;99.90;;;;;;5054415;28;20255;-66
2021/09/26 07:47:07;;;;;;;7.80;5.03;;;28.60;99.90;;;;;;5054521;28;20629;-67
2021/09/26 07:49:34;;;;;;;8.02;4.85;;;27.90;99.90;;;;;;5054429;28;20242;-66
2021/09/26 07:52:01;;;;;;;7.78;5.40;;;27.50;99.90;;;;;;5054188;28;20205;-68
2021/09/26 07:54:28;;;;;;;7.95;4.22;;;27.10;99.90;;;;;;5054096;28;20570;-65
2021/09/26 07:56:55;;;;;;;9.45;4.20;;;26.90;99.90;;;;;;5054638;28;20236;-67
2021/09/26 07:59:23;;;;;;;8.43;5.63;;;26.70;99.90;;;;;;5054329;28;20206;-68
2021/09/26 08:01:49;;;;;;;6.93;4.57;;;26.40;99.90;;;;;;5054243;28;20633;-67
2021/09/26 08:04:16;;;;;;;6.78;4.80;;;26.10;99.90;;;;;;5054082;28;20209;-66
2021/09/26 08:06:43;;;;;;;6.10;4.68;;;25.90;99.90;;;;;;5054327;28;20674;-67
2021/09/26 08:09:10;;;;;;;7.88;4.25;;;25.60;99.90;;;;;;5054474;28;20643;-67
2021/09/26 08:11:37;;;;;;;15.57;8.68;;;25.60;99.90;;;;;;5054907;28;20217;-67
2021/09/26 08:14:06;;;;;;;7.53;4.40;;;25.50;99.90;;;;;;5054656;28;20239;-68
2021/09/26 08:16:34;;;;;;;8.07;4.43;;;25.50;99.90;;;;;;5054271;28;20243;-67
2021/09/26 08:19:01;;;;;;;9.32;4.80;;;25.40;99.90;;;;;;5054037;28;20744;-67
2021/09/26 08:21:28;;;;;;;7.07;4.40;;;25.30;99.90;;;;;;5054055;28;20205;-67
2021/09/26 08:23:55;;;;;;;5.88;4.53;;;25.10;99.90;;;;;;5054262;28;20229;-67
2021/09/26 08:26:22;;;;;;;6.55;4.55;;;24.90;99.90;;;;;;5054631;28;20198;-67
2021/09/26 08:28:49;;;;;;;6.38;5.13;;;24.90;99.90;;;;;;5054483;28;20209;-67
2021/09/26 08:31:16;;;;;;;10.82;4.80;;;24.80;99.90;;;;;;5054511;28;20214;-67
2021/09/26 08:33:44;;;;;;;5.85;4.30;;;24.80;99.90;;;;;;5054480;28;20729;-67
2021/09/26 08:36:10;;;;;;;6.78;4.72;;;24.70;99.90;;;;;;5054144;28;20615;-68
2021/09/26 08:38:37;;;;;;;7.93;4.38;;;24.70;99.90;;;;;;5054041;28;20210;-68
2021/09/26 08:41:04;;;;;;;5.80;4.90;;;24.80;99.90;;;;;;5054112;28;20282;-66
2021/09/26 08:43:31;;;;;;;11.65;4.72;;;24.80;99.90;;;;;;5053736;28;20225;-68
2021/09/26 08:45:57;;;;;;;7.90;4.47;;;24.90;99.90;;;;;;5053628;28;20202;-67
2021/09/26 08:48:25;;;;;;;9.52;4.78;;;25.00;99.90;;;;;;5052319;28;20636;-68
2021/09/26 08:50:54;;;;;;;9.93;4.90;;;25.00;99.90;;;;;;5053470;28;20206;-68
2021/09/26 08:53:24;;;;;;;8.45;5.30;;;25.10;99.90;;;;;;5053455;28;20783;-68
2021/09/26 08:55:51;;;;;;;10.07;5.25;;;25.10;99.90;;;;;;5053344;28;20221;-67
2021/09/26 08:58:19;;;;;;;10.98;4.60;;;25.00;99.90;;;;;;5053237;28;20209;-68
2021/09/26 09:00:46;;;;;;;7.70;4.05;;;25.10;99.90;;;;;;5053009;28;20252;-67
2021/09/26 09:03:13;;;;;;;5.28;4.18;;;25.30;99.90;;;;;;5052857;28;20229;-67
2021/09/26 09:05:40;;;;;;;9.40;5.60;;;25.50;99.90;;;;;;5053225;28;20197;-67
2021/09/26 09:08:11;;;;;;;7.05;4.65;;;25.60;99.90;;;;;;5052925;28;20778;-68
2021/09/26 09:10:46;;;;;;;7.25;4.63;;;25.60;99.90;;;;;;5053215;28;20622;-67
2021/09/26 09:13:17;;;;;;;8.65;4.57;;;25.60;99.90;;;;;;5052960;28;20247;-68
2021/09/26 09:15:54;;;;;;;8.13;4.35;;;25.50;99.90;;;;;;5053085;28;20225;-66
2021/09/26 09:18:21;;;;;;;10.20;4.50;;;25.40;99.90;;;;;;5053061;28;20870;-67
2021/09/26 09:20:49;;;;;;;8.73;4.90;;;25.40;99.90;;;;;;5053012;28;20201;-67
2021/09/26 09:23:20;;;;;;;8.55;4.70;;;25.50;99.90;;;;;;5052727;28;20625;-67
2021/09/26 09:25:49;;;;;;;5.65;4.43;;;25.50;99.90;;;;;;5052377;28;20206;-67
2021/09/26 09:28:17;;;;;;;6.85;4.40;;;25.50;99.90;;;;;;5051978;28;20267;-66
2021/09/26 09:30:46;;;;;;;9.35;4.32;;;25.50;99.90;;;;;;5052818;28;20214;-65
2021/09/26 09:33:15;;;;;;;7.97;4.97;;;25.60;99.90;;;;;;5052649;28;20772;-68
2021/09/26 09:35:44;;;;;;;9.35;4.80;;;25.70;99.90;;;;;;5052579;28;20220;-68
2021/09/26 09:38:12;;;;;;;6.95;4.80;;;25.70;99.90;;;;;;5052322;28;20206;-68
2021/09/26 09:40:40;;;;;;;8.27;5.05;;;25.70;99.90;;;;;;5052168;28;20620;-66
2021/09/26 09:43:07;;;;;;;9.77;4.88;;;25.60;99.90;;;;;;5052355;28;20617;-66
2021/09/26 09:45:35;;;;;;;14.55;6.50;;;25.30;99.90;;;;;;5052226;28;20214;-69
2021/09/26 09:48:14;;;;;;;21.65;7.35;;;25.00;99.90;;;;;;5052264;28;20560;-69
2021/09/26 09:50:47;;;;;;;15.15;6.40;;;24.50;99.90;;;;;;5052193;28;20220;-69
2021/09/26 09:53:33;;;;;;;17.70;6.60;;;24.00;99.90;;;;;;5051874;28;20610;-69
2021/09/26 09:56:10;;;;;;;12.85;5.57;;;23.70;99.90;;;;;;5051955;28;20267;-69
2021/09/26 09:58:39;;;;;;;10.55;5.35;;;23.50;99.90;;;;;;5052270;28;20200;-69
2021/09/26 10:01:08;;;;;;;8.52;5.10;;;23.50;99.90;;;;;;5051830;28;20262;-69
2021/09/26 10:03:48;;;;;;;11.90;5.47;;;23.50;99.90;;;;;;5051646;28;20727;-70
2021/09/26 10:06:38;;;;;;;7.13;5.30;;;23.50;99.90;;;;;;5052196;28;20208;-70
2021/09/26 10:09:21;;;;;;;10.07;5.95;;;23.60;99.90;;;;;;5052069;28;20730;-70
2021/09/26 10:11:51;;;;;;;9.10;5.53;;;23.70;99.90;;;;;;5050802;28;20213;-69
2021/09/26 10:14:19;;;;;;;11.95;6.15;;;23.80;99.90;;;;;;5052405;28;20205;-71
2021/09/26 10:16:47;;;;;;;12.68;5.50;;;24.00;99.90;;;;;;5051776;28;20350;-71
2021/09/26 10:19:14;;;;;;;9.65;6.28;;;24.20;99.90;;;;;;5052156;28;20217;-71
2021/09/26 10:21:42;;;;;;;7.43;5.30;;;24.40;99.90;;;;;;5051731;28;20209;-71
2021/09/26 10:24:09;;;;;;;13.57;5.82;;;24.50;99.90;;;;;;5051332;28;20225;-71
2021/09/26 10:26:39;;;;;;;6.80;5.90;;;24.30;99.90;;;;;;5051898;28;20213;-71
2021/09/26 10:29:09;;;;;;;8.95;6.30;;;24.20;99.90;;;;;;5051801;28;20212;-71
2021/09/26 10:31:37;;;;;;;7.38;6.60;;;24.00;99.90;;;;;;5051678;28;20213;-70
2021/09/26 10:34:04;;;;;;;9.05;7.07;;;23.80;99.90;;;;;;5051169;28;20233;-70
2021/09/26 10:36:32;;;;;;;8.70;6.57;;;23.80;99.90;;;;;;5051247;28;20225;-70
2021/09/26 10:39:01;;;;;;;6.90;6.28;;;23.80;99.90;;;;;;5051102;28;20201;-70
2021/09/26 10:41:27;;;;;;;8.60;5.97;;;23.80;99.90;;;;;;5051305;28;20202;-70
2021/09/26 10:43:54;;;;;;;7.93;7.07;;;23.80;99.90;;;;;;5051173;28;20226;-70
2021/09/26 10:46:25;;;;;;;8.10;6.75;;;23.70;99.90;;;;;;5051516;28;20696;-70
2021/09/26 10:49:10;;;;;;;8.50;7.55;;;23.70;99.90;;;;;;5051304;28;20211;-67
2021/09/26 10:51:52;;;;;;;9.20;7.22;;;23.70;99.90;;;;;;5051132;28;20665;-68
2021/09/26 10:54:30;;;;;;;7.53;6.78;;;23.80;99.90;;;;;;5051529;28;20209;-67
2021/09/26 10:57:27;;;;;;;8.70;6.88;;;23.80;99.90;;;;;;5051346;28;20274;-67
2021/09/26 10:59:56;;;;;;;7.50;6.10;;;23.70;99.90;;;;;;5051280;28;20217;-67
2021/09/26 11:02:45;;;;;;;11.10;7.22;;;23.80;99.90;;;;;;5051577;28;20256;-67
2021/09/26 11:05:35;;;;;;;8.25;6.07;;;23.90;99.90;;;;;;5051172;28;20210;-67
2021/09/26 11:08:05;;;;;;;9.52;6.40;;;24.00;99.90;;;;;;5051001;28;20205;-67
2021/09/26 11:10:41;;;;;;;8.43;6.25;;;24.20;99.90;;;;;;5050727;28;20670;-67
2021/09/26 11:13:18;;;;;;;12.57;8.27;;;24.30;99.90;;;;;;5050322;28;20256;-67
2021/09/26 11:16:03;;;;;;;10.55;6.90;;;24.50;99.90;;;;;;5050745;28;20212;-68
2021/09/26 11:18:48;;;;;;;8.18;6.35;;;24.70;99.90;;;;;;5050328;28;20209;-66
2021/09/26 11:21:45;;;;;;;7.10;5.60;;;24.90;99.90;;;;;;5050824;28;20217;-67
2021/09/26 11:24:13;;;;;;;6.35;5.30;;;24.80;99.90;;;;;;5050601;28;20229;-66
2021/09/26 11:27:07;;;;;;;5.68;5.18;;;24.90;99.90;;;;;;5050542;28;20202;-67
2021/09/26 11:30:07;;;;;;;6.15;5.55;;;24.90;99.90;;;;;;5050822;28;20213;-67
2021/09/26 11:32:34;;;;;;;5.82;5.22;;;24.90;99.90;;;;;;5050378;28;20225;-67
2021/09/26 11:35:05;;;;;;;5.68;4.75;;;24.80;99.90;;;;;;5050172;28;20206;-67
2021/09/26 11:37:51;;;;;;;5.65;4.63;;;24.70;99.90;;;;;;5051067;28;20503;-69
2021/09/26 11:40:21;;;;;;;6.03;5.22;;;24.50;99.90;;;;;;5050736;28;20607;-67
2021/09/26 11:42:51;;;;;;;6.13;5.13;;;24.40;99.90;;;;;;5050780;28;20226;-68
2021/09/26 11:45:22;;;;;;;5.05;4.55;;;24.20;99.90;;;;;;5050491;28;20586;-67
2021/09/26 11:48:08;;;;;;;6.05;5.40;;;23.90;99.90;;;;;;5051334;28;20209;-68
2021/09/26 11:50:38;;;;;;;6.25;5.30;;;23.70;99.90;;;;;;5053352;28;20221;-66
2021/09/26 11:53:06;;;;;;;10.82;5.95;;;23.60;99.90;;;;;;5053263;28;20693;-67
2021/09/26 11:55:34;;;;;;;6.25;5.70;;;23.50;99.90;;;;;;5053375;28;20633;-67
2021/09/26 11:58:03;;;;;;;7.13;5.72;;;23.50;99.90;;;;;;5052826;28;20218;-66
2021/09/26 12:00:31;;;;;;;6.20;5.60;;;23.40;99.90;;;;;;5052155;28;20629;-66
2021/09/26 12:03:12;;;;;;;7.22;5.03;;;23.40;99.90;;;;;;5051273;28;20316;-69
2021/09/26 12:05:42;;;;;;;10.57;9.50;;;23.40;99.90;;;;;;5050547;28;20212;-66
2021/09/26 12:08:09;;;;;;;6.75;5.75;;;23.30;99.90;;;;;;5050517;28;20212;-66
2021/09/26 12:10:36;;;;;;;5.88;5.22;;;23.30;99.90;;;;;;5050301;28;20406;-66
2021/09/26 12:13:11;;;;;;;6.22;5.13;;;23.20;99.90;;;;;;5050198;28;20663;-66
2021/09/26 12:15:38;;;;;;;5.72;5.18;;;23.10;99.90;;;;;;5050611;28;20201;-66
2021/09/26 12:18:05;;;;;;;6.90;5.00;;;23.10;99.90;;;;;;5050083;28;20226;-66
2021/09/26 12:20:31;;;;;;;6.43;5.75;;;23.00;99.90;;;;;;5050705;28;20225;-66
2021/09/26 12:23:01;;;;;;;8.25;6.10;;;23.00;99.90;;;;;;5050861;28;20237;-66
2021/09/26 12:25:33;;;;;;;6.43;5.72;;;23.00;99.90;;;;;;5053962;28;20214;-66
2021/09/26 12:28:02;;;;;;;6.53;5.80;;;23.00;99.90;;;;;;5053859;28;20205;-66
2021/09/26 12:30:32;;;;;;;7.07;6.03;;;23.10;99.90;;;;;;5053764;28;20271;-66
2021/09/26 12:33:03;;;;;;;7.80;7.10;;;23.20;99.90;;;;;;5053666;28;20320;-66
2021/09/26 12:35:33;;;;;;;7.03;6.30;;;23.30;99.90;;;;;;5054171;28;20858;-66
2021/09/26 12:38:04;;;;;;;8.45;6.18;;;23.50;99.90;;;;;;5053768;28;20229;-66
2021/09/26 12:40:37;;;;;;;7.60;6.30;;;23.70;99.90;;;;;;5053758;28;20244;-66
2021/09/26 12:43:07;;;;;;;7.60;6.20;;;24.00;99.90;;;;;;5053514;28;20252;-66
2021/09/26 12:45:39;;;;;;;5.70;5.20;;;24.40;99.90;;;;;;5053428;28;20209;-66
2021/09/26 12:48:07;;;;;;;6.57;5.85;;;24.70;99.90;;;;;;5053492;28;20209;-66
2021/09/26 12:50:37;;;;;;;7.22;5.78;;;24.90;99.90;;;;;;5053611;28;20301;-67
2021/09/26 12:53:07;;;;;;;10.88;7.72;;;25.10;99.90;;;;;;5053494;28;20232;-68
2021/09/26 12:55:37;;;;;;;6.95;5.57;;;25.40;99.90;;;;;;5053256;28;20202;-67
2021/09/26 12:58:06;;;;;;;6.00;5.32;;;25.90;99.90;;;;;;5053452;28;20632;-67